📊 Raw Sensor Data
Showing records 45001 to 45025 of 85,045 total
| ID | Distance (ft) | Battery V | Battery A | Int Temp (°F) | Int Humid (%) | Ext Temp (°F) | Solar V | RSSI | SNR | Time Stamp |
|---|---|---|---|---|---|---|---|---|---|---|
| 40057 | 15.9 | 3.97 | 0 | 99 | 43 | 89 | 5.10 | -71 | 8 | 05/08/2025 04:00 PM |
| 40056 | 15.9 | 3.97 | 0 | 99 | 42 | 88 | 5.10 | -69 | 8 | 05/08/2025 03:45 PM |
| 40055 | -- | 3.97 | 0 | 97 | 42 | 87 | 5.10 | -69 | 8 | 05/08/2025 03:30 PM |
| 40054 | -- | 3.97 | 0 | 99 | 40 | 87 | 5.10 | -70 | 9 | 05/08/2025 03:15 PM |
| 40053 | -- | 3.97 | 0 | 97 | 40 | 90 | 5.10 | -69 | 8 | 05/08/2025 03:00 PM |
| 40052 | -- | 3.97 | 0 | 94 | 40 | 85 | 5.10 | -70 | 9 | 05/08/2025 02:46 PM |
| 40051 | -- | 3.97 | 0 | 93 | 40 | 86 | 5.10 | -71 | 8 | 05/08/2025 02:30 PM |
| 40050 | -- | 4.13 | 0 | 91 | 40 | 82 | 5.10 | -70 | 9 | 05/08/2025 02:15 PM |
| 40049 | -- | 3.98 | 0 | 91 | 40 | 82 | 5.10 | -70 | 9 | 05/08/2025 02:00 PM |
| 40048 | 15.9 | 3.97 | 0 | 90 | 39 | 80 | 5.10 | -70 | 8 | 05/08/2025 01:45 PM |
| 40047 | 15.9 | 4.05 | 0 | 88 | 39 | 80 | 5.10 | -70 | 8 | 05/08/2025 01:30 PM |
| 40046 | -- | 4.13 | 0 | 86 | 40 | 80 | 5.10 | -70 | 9 | 05/08/2025 01:15 PM |
| 40045 | 15.9 | 3.97 | 0 | 84 | 40 | 79 | 5.10 | -71 | 8 | 05/08/2025 01:00 PM |
| 40044 | -- | 3.97 | 0 | 82 | 40 | 76 | 5.10 | -70 | 8 | 05/08/2025 12:45 PM |
| 40043 | 15.9 | 3.97 | 0 | 81 | 40 | 77 | 5.10 | -69 | 8 | 05/08/2025 12:30 PM |
| 40042 | 15.9 | 3.97 | 0 | 79 | 41 | 76 | 5.10 | -69 | 8 | 05/08/2025 12:16 PM |
| 40041 | 15.9 | 3.97 | 0 | 78 | 41 | 74 | 5.10 | -70 | 7 | 05/08/2025 12:00 PM |
| 40040 | 15.9 | 3.97 | 0 | 76 | 41 | 74 | 5.10 | -69 | 7 | 05/08/2025 11:45 AM |
| 40039 | 15.9 | 3.97 | 0 | 75 | 41 | 72 | 5.10 | -69 | 8 | 05/08/2025 11:30 AM |
| 40038 | 15.9 | 3.97 | 0 | 74 | 41 | 72 | 5.10 | -69 | 8 | 05/08/2025 11:15 AM |
| 40037 | 15.9 | 4.01 | 0 | 73 | 41 | 70 | 5.10 | -70 | 8 | 05/08/2025 11:00 AM |
| 40036 | 15.9 | 3.97 | 0 | 72 | 41 | 71 | 5.10 | -71 | 8 | 05/08/2025 10:45 AM |
| 40035 | 15.9 | 3.97 | 0 | 71 | 41 | 73 | 5.10 | -68 | 8 | 05/08/2025 10:30 AM |
| 40034 | 16.0 | 3.97 | 0 | 70 | 41 | 71 | 5.10 | -69 | 8 | 05/08/2025 10:15 AM |
| 40033 | 16.0 | 3.97 | 0 | 69 | 40 | 68 | 5.10 | -69 | 8 | 05/08/2025 10:00 AM |